createdAt,value
2019-05-21T20:53:03.048Z,17.66
2019-05-21T20:55:33.987Z,17.98
2019-05-21T20:58:16.474Z,17.15
2019-05-21T21:00:49.570Z,17.78
2019-05-21T21:03:19.683Z,17.79
2019-05-21T21:05:50.033Z,17.52
2019-05-21T21:08:22.661Z,16.38
2019-05-21T21:10:57.318Z,16.28
2019-05-21T21:13:28.869Z,17.33
2019-05-21T21:15:59.331Z,16.73
2019-05-21T21:18:29.863Z,16.28
2019-05-21T21:20:59.539Z,15.83
2019-05-21T21:23:31.000Z,16.10
2019-05-21T21:26:00.945Z,16.09
2019-05-21T21:28:30.654Z,15.84
2019-05-21T21:31:00.622Z,16.71
2019-05-21T21:33:30.754Z,17.02
2019-05-21T21:36:00.747Z,16.68
2019-05-21T21:38:33.386Z,16.39
2019-05-21T21:41:03.052Z,16.89
2019-05-21T21:43:32.830Z,16.41
2019-05-21T21:46:02.699Z,16.39
2019-05-21T21:48:32.817Z,16.84
2019-05-21T21:51:02.646Z,16.19
2019-05-21T21:53:33.035Z,15.83
2019-05-21T21:56:02.679Z,15.92
2019-05-21T21:58:32.527Z,16.13
2019-05-21T22:01:06.580Z,15.67
2019-05-21T22:03:38.921Z,15.92
2019-05-21T22:06:15.351Z,15.13
2019-05-21T22:08:48.347Z,15.57
2019-05-21T22:11:20.065Z,16.01
2019-05-21T22:13:49.950Z,16.46
2019-05-21T22:16:20.300Z,15.95
2019-05-21T22:18:50.862Z,15.87
2019-05-21T22:21:21.149Z,16.11
2019-05-21T22:23:50.860Z,16.21
2019-05-21T22:26:20.558Z,15.80
2019-05-21T22:28:50.477Z,15.78
2019-05-21T22:31:20.262Z,15.87
2019-05-21T22:33:50.031Z,16.14
2019-05-21T22:36:19.921Z,14.91
2019-05-21T22:38:49.738Z,15.20
2019-05-21T22:41:38.605Z,15.28
2019-05-21T22:44:08.174Z,15.67
2019-05-21T22:46:37.794Z,15.58
2019-05-21T22:49:07.420Z,15.70
2019-05-21T22:51:36.991Z,15.34
2019-05-21T22:54:06.674Z,14.69
2019-05-21T22:56:36.368Z,15.43
2019-05-21T22:59:06.150Z,15.24
2019-05-21T23:01:37.842Z,14.38
2019-05-21T23:04:07.522Z,14.81
2019-05-21T23:06:37.459Z,14.94
2019-05-21T23:09:08.603Z,15.25
2019-05-21T23:11:38.587Z,15.41
2019-05-21T23:14:08.307Z,14.84
2019-05-21T23:16:38.093Z,15.25
2019-05-21T23:19:08.902Z,14.89
2019-05-21T23:21:39.709Z,14.98
2019-05-21T23:24:26.111Z,14.62
2019-05-21T23:26:56.358Z,14.32
2019-05-21T23:29:26.342Z,14.59
2019-05-21T23:31:56.336Z,14.12
2019-05-21T23:34:26.833Z,14.57
2019-05-21T23:36:57.769Z,14.44
2019-05-21T23:39:28.432Z,14.43
2019-05-21T23:41:58.187Z,13.41
2019-05-21T23:44:27.979Z,13.47
2019-05-21T23:46:58.279Z,13.33
2019-05-21T23:49:28.363Z,13.19
2019-05-21T23:51:58.304Z,13.03
2019-05-21T23:54:28.224Z,13.20
2019-05-21T23:56:59.813Z,13.42
2019-05-21T23:59:29.469Z,13.05
